createdAt,value
2023-01-25T00:00:40.332Z,25.30
2023-01-25T00:03:34.899Z,25.10
2023-01-25T00:06:28.485Z,24.30
2023-01-25T00:09:21.770Z,23.80
2023-01-25T00:12:14.967Z,25.70
2023-01-25T00:15:11.149Z,24.80
2023-01-25T00:18:03.666Z,27.10
2023-01-25T00:20:56.767Z,24.90
2023-01-25T00:23:49.955Z,23.30
2023-01-25T00:26:43.883Z,24.80
2023-01-25T00:29:37.227Z,24.40
2023-01-25T00:32:42.118Z,27.00
2023-01-25T00:35:36.057Z,22.10
2023-01-25T00:38:35.684Z,26.60
2023-01-25T00:41:28.793Z,23.90
2023-01-25T00:44:21.951Z,24.90
2023-01-25T00:47:15.366Z,24.70
2023-01-25T00:50:08.888Z,21.60
2023-01-25T00:52:59.827Z,24.00
2023-01-25T00:55:55.286Z,23.90
2023-01-25T00:58:46.888Z,25.00
2023-01-25T01:01:38.485Z,24.40
2023-01-25T01:04:31.426Z,24.70
2023-01-25T01:07:22.462Z,21.80
2023-01-25T01:10:14.527Z,24.30
2023-01-25T01:13:06.088Z,25.00
2023-01-25T01:15:57.808Z,25.80
2023-01-25T01:18:49.381Z,25.50
2023-01-25T01:21:41.177Z,26.70
2023-01-25T01:24:32.832Z,27.20
2023-01-25T01:27:24.422Z,26.90
2023-01-25T01:30:17.039Z,26.10
2023-01-25T01:33:09.475Z,24.00
2023-01-25T01:36:01.041Z,24.00
2023-01-25T01:38:52.516Z,27.70
2023-01-25T01:41:44.112Z,24.30
2023-01-25T01:44:47.814Z,25.30
2023-01-25T01:47:45.913Z,27.40
2023-01-25T01:50:37.254Z,26.40
2023-01-25T01:53:28.824Z,28.70
2023-01-25T01:56:22.625Z,28.50
2023-01-25T01:59:13.764Z,26.70
2023-01-25T02:02:05.471Z,28.70
2023-01-25T02:05:02.237Z,27.50
2023-01-25T02:07:53.411Z,28.30
2023-01-25T02:10:45.092Z,27.80
2023-01-25T02:13:37.282Z,28.80
2023-01-25T02:16:29.961Z,29.00
2023-01-25T02:19:25.588Z,29.40
2023-01-25T02:22:17.337Z,27.60
2023-01-25T02:25:10.903Z,25.80
2023-01-25T02:28:03.396Z,24.80
2023-01-25T02:30:55.030Z,28.40
2023-01-25T02:33:47.036Z,29.20
2023-01-25T02:36:38.737Z,31.00
2023-01-25T02:39:30.477Z,29.00
2023-01-25T02:42:22.303Z,29.50
2023-01-25T02:45:17.064Z,28.20
2023-01-25T02:48:09.467Z,27.00
2023-01-25T02:51:01.112Z,26.30
2023-01-25T02:53:52.716Z,29.60
2023-01-25T02:56:44.278Z,27.20
2023-01-25T02:59:36.903Z,28.70
2023-01-25T03:02:28.661Z,27.80
2023-01-25T03:05:21.767Z,28.00
2023-01-25T03:08:13.373Z,32.30
2023-01-25T03:11:05.723Z,26.90
2023-01-25T03:13:56.785Z,29.70
2023-01-25T03:16:48.339Z,31.90
2023-01-25T03:19:40.013Z,26.90
2023-01-25T03:22:31.687Z,28.80
2023-01-25T03:25:23.289Z,23.80
2023-01-25T03:28:14.864Z,25.30
2023-01-25T03:31:06.717Z,34.00
2023-01-25T03:33:58.485Z,29.40
2023-01-25T03:36:50.074Z,30.50
2023-01-25T03:39:41.713Z,27.30
2023-01-25T03:42:33.282Z,25.60
2023-01-25T03:45:24.900Z,29.00
2023-01-25T03:48:16.529Z,30.20
2023-01-25T03:51:08.685Z,29.70
2023-01-25T03:54:00.222Z,28.50
2023-01-25T03:56:52.508Z,29.80
2023-01-25T03:59:44.162Z,31.80
2023-01-25T04:02:35.902Z,26.50
2023-01-25T04:05:28.544Z,29.80
2023-01-25T04:08:20.190Z,30.50
2023-01-25T04:11:12.963Z,33.00
2023-01-25T04:14:04.580Z,28.60
2023-01-25T04:16:56.242Z,26.50
2023-01-25T04:19:49.507Z,30.80
2023-01-25T04:22:40.710Z,32.20
2023-01-25T04:25:32.276Z,31.90
2023-01-25T04:28:23.939Z,34.10
2023-01-25T04:31:15.714Z,30.80
2023-01-25T04:34:07.609Z,30.20
2023-01-25T04:36:59.673Z,32.30
2023-01-25T04:39:51.373Z,29.70
2023-01-25T04:42:43.115Z,31.90
2023-01-25T04:45:36.390Z,31.20
2023-01-25T04:48:28.131Z,30.50
2023-01-25T04:51:19.684Z,30.00
2023-01-25T04:54:11.275Z,35.00
2023-01-25T04:57:02.821Z,26.50
2023-01-25T04:59:54.398Z,31.00
2023-01-25T05:02:46.069Z,34.80
2023-01-25T05:05:37.724Z,31.60
2023-01-25T05:08:30.435Z,26.60
2023-01-25T05:11:22.057Z,31.50
2023-01-25T05:14:13.665Z,30.90
2023-01-25T05:17:05.261Z,29.60
2023-01-25T05:19:56.842Z,29.70
2023-01-25T05:22:48.457Z,31.70
2023-01-25T05:25:57.571Z,29.40
2023-01-25T05:28:49.417Z,30.50
2023-01-25T05:31:40.964Z,27.90
2023-01-25T05:34:32.396Z,31.60
2023-01-25T05:37:23.925Z,36.40
2023-01-25T05:40:16.579Z,23.30
2023-01-25T05:43:07.711Z,29.00
2023-01-25T05:45:59.324Z,30.20
2023-01-25T05:48:51.346Z,29.70
2023-01-25T05:51:42.954Z,32.40
2023-01-25T05:54:34.500Z,27.20
2023-01-25T05:57:26.344Z,27.70
2023-01-25T06:00:19.520Z,26.00
2023-01-25T06:03:10.645Z,29.10
2023-01-25T06:06:03.035Z,28.90
2023-01-25T06:08:54.764Z,25.50
2023-01-25T06:11:47.049Z,28.50
2023-01-25T06:14:39.035Z,28.30
2023-01-25T06:17:30.646Z,29.00
2023-01-25T06:20:22.240Z,24.90
2023-01-25T06:23:13.912Z,24.90
2023-01-25T06:26:06.951Z,29.00
2023-01-25T06:28:57.980Z,28.30
2023-01-25T06:31:49.669Z,28.60
2023-01-25T06:34:42.760Z,26.10
2023-01-25T06:37:34.378Z,28.60
2023-01-25T06:40:25.992Z,28.90
2023-01-25T06:43:17.615Z,28.60
2023-01-25T06:46:11.997Z,33.40
2023-01-25T06:49:04.206Z,31.50
2023-01-25T06:51:55.826Z,32.50
2023-01-25T06:54:47.525Z,32.80
2023-01-25T06:57:39.176Z,31.40
2023-01-25T07:00:30.841Z,27.80
2023-01-25T07:03:22.512Z,31.30
2023-01-25T07:06:14.297Z,31.60
2023-01-25T07:09:06.699Z,34.20
2023-01-25T07:11:58.370Z,28.90
2023-01-25T07:14:50.103Z,32.80
2023-01-25T07:17:41.753Z,30.90
2023-01-25T07:20:33.433Z,29.30
2023-01-25T07:23:27.051Z,35.50
2023-01-25T07:26:19.932Z,29.80
2023-01-25T07:29:11.652Z,26.90
2023-01-25T07:32:03.137Z,30.30
2023-01-25T07:34:54.865Z,32.20
2023-01-25T07:37:46.731Z,30.10
2023-01-25T07:40:38.437Z,30.40
2023-01-25T07:43:31.136Z,30.70
2023-01-25T07:46:23.709Z,31.50
2023-01-25T07:49:15.363Z,31.00
2023-01-25T07:52:07.274Z,32.10
2023-01-25T07:54:59.527Z,27.90
2023-01-25T07:57:50.491Z,30.80
2023-01-25T08:00:42.080Z,30.80
2023-01-25T08:03:33.811Z,26.60
2023-01-25T08:06:27.509Z,30.30
2023-01-25T08:09:20.533Z,28.20
2023-01-25T08:12:11.645Z,28.80
2023-01-25T08:15:03.316Z,26.40
2023-01-25T08:17:54.888Z,30.40
2023-01-25T08:20:47.648Z,26.00
2023-01-25T08:23:40.654Z,30.50
2023-01-25T08:26:35.442Z,26.60
2023-01-25T08:29:27.994Z,27.60
2023-01-25T08:32:19.107Z,26.30
2023-01-25T08:35:12.277Z,32.70
2023-01-25T08:38:03.685Z,29.50
2023-01-25T08:40:55.378Z,26.80
2023-01-25T08:43:47.135Z,24.30
2023-01-25T08:46:38.863Z,26.60
2023-01-25T08:49:31.769Z,27.70
2023-01-25T08:52:23.428Z,28.30
2023-01-25T08:55:15.319Z,29.80
2023-01-25T08:58:11.085Z,30.00
2023-01-25T09:01:05.328Z,36.20
2023-01-25T09:03:56.966Z,25.40
2023-01-25T09:06:48.812Z,27.10
2023-01-25T09:09:40.694Z,27.80
2023-01-25T09:12:32.660Z,29.50
2023-01-25T09:15:24.368Z,27.10
2023-01-25T09:18:16.014Z,24.50
2023-01-25T09:21:10.291Z,27.10
2023-01-25T09:24:06.324Z,25.80
2023-01-25T09:27:00.025Z,25.80
2023-01-25T09:30:01.344Z,25.90
2023-01-25T09:32:54.708Z,27.40
2023-01-25T09:35:50.819Z,25.50
2023-01-25T09:38:42.620Z,25.10
2023-01-25T09:41:42.669Z,26.60
2023-01-25T09:44:41.587Z,23.90
2023-01-25T09:47:35.181Z,26.20
2023-01-25T09:50:34.837Z,28.40
2023-01-25T09:53:29.067Z,23.90
2023-01-25T09:56:21.454Z,25.90
2023-01-25T09:59:14.806Z,27.40
2023-01-25T10:02:06.923Z,22.50
2023-01-25T10:04:58.408Z,24.50
2023-01-25T10:07:58.077Z,23.50
2023-01-25T10:10:49.768Z,24.80
2023-01-25T10:13:41.633Z,26.10
2023-01-25T10:16:39.288Z,25.60
2023-01-25T10:19:38.600Z,28.30
2023-01-25T10:22:30.407Z,26.50
2023-01-25T10:25:37.669Z,24.60
2023-01-25T10:28:36.080Z,26.10
2023-01-25T10:31:33.272Z,26.00
2023-01-25T10:34:27.032Z,22.70
2023-01-25T10:37:22.191Z,24.30
2023-01-25T10:40:20.685Z,22.00
2023-01-25T10:43:17.858Z,24.20
2023-01-25T10:46:12.481Z,23.40
2023-01-25T10:49:08.707Z,23.70
2023-01-25T10:51:59.781Z,24.50
2023-01-25T10:55:03.559Z,27.70
2023-01-25T10:57:57.828Z,20.70
2023-01-25T11:00:53.376Z,21.20
2023-01-25T11:03:45.365Z,22.40
2023-01-25T11:06:38.485Z,19.10
2023-01-25T11:09:35.750Z,19.30
2023-01-25T11:12:27.367Z,17.50
2023-01-25T11:15:27.139Z,17.30
2023-01-25T11:18:21.678Z,22.10
2023-01-25T11:21:18.268Z,17.80
2023-01-25T11:24:28.512Z,15.10
2023-01-25T11:27:24.191Z,16.30
2023-01-25T11:30:20.896Z,17.70
2023-01-25T11:33:16.468Z,16.50
2023-01-25T11:36:17.763Z,15.90
2023-01-25T11:39:22.713Z,16.50
2023-01-25T11:42:22.730Z,17.60
2023-01-25T11:45:24.216Z,17.20
2023-01-25T11:48:26.400Z,18.10
2023-01-25T11:51:21.146Z,16.60
2023-01-25T11:54:25.675Z,17.70
2023-01-25T11:57:30.995Z,16.70
2023-01-25T12:00:40.477Z,17.20
2023-01-25T12:04:17.759Z,16.00
2023-01-25T12:07:09.678Z,16.00
2023-01-25T12:10:10.767Z,17.80
2023-01-25T12:13:04.232Z,16.70
2023-01-25T12:16:18.615Z,15.30
2023-01-25T12:19:20.327Z,17.20
2023-01-25T12:22:19.124Z,14.40
2023-01-25T12:25:17.075Z,12.60
2023-01-25T12:28:13.414Z,13.80
2023-01-25T12:31:06.314Z,14.60
2023-01-25T12:34:01.866Z,14.70
2023-01-25T12:36:54.244Z,13.90
2023-01-25T12:39:48.058Z,14.20
2023-01-25T12:42:41.465Z,12.00
2023-01-25T12:45:34.906Z,13.70
2023-01-25T12:48:29.186Z,11.80
2023-01-25T12:51:20.121Z,15.20
2023-01-25T12:54:17.567Z,15.10
2023-01-25T12:57:16.930Z,18.00
2023-01-25T13:00:18.783Z,17.80
2023-01-25T13:03:21.853Z,17.50
2023-01-25T13:06:19.049Z,17.10
2023-01-25T13:09:14.758Z,19.10
2023-01-25T13:12:06.491Z,17.30
2023-01-25T13:14:57.610Z,17.10
2023-01-25T13:17:48.606Z,15.60
2023-01-25T13:20:50.939Z,17.50
2023-01-25T13:23:47.058Z,15.50
2023-01-25T13:29:57.587Z,18.60
2023-01-25T13:33:06.975Z,15.60
2023-01-25T13:35:58.206Z,18.30
2023-01-25T13:38:49.891Z,17.20
2023-01-25T13:41:43.753Z,20.40
2023-01-25T13:44:36.724Z,19.30
2023-01-25T13:47:28.822Z,22.50
2023-01-25T13:50:23.382Z,17.80
2023-01-25T13:53:22.414Z,20.30
2023-01-25T13:56:27.449Z,19.70
2023-01-25T13:59:28.685Z,19.20
2023-01-25T14:02:21.433Z,16.10
2023-01-25T14:05:21.645Z,19.20
2023-01-25T14:08:12.667Z,15.70
2023-01-25T14:11:03.631Z,18.20
2023-01-25T14:14:04.834Z,19.20
2023-01-25T14:17:18.925Z,18.20
2023-01-25T14:20:17.587Z,19.70
2023-01-25T14:23:21.199Z,18.40
2023-01-25T14:26:22.055Z,15.20
2023-01-25T14:29:31.838Z,17.10
2023-01-25T14:32:23.407Z,16.90
2023-01-25T14:35:49.443Z,16.50
2023-01-25T14:38:44.586Z,18.50
2023-01-25T14:41:37.237Z,17.30
2023-01-25T14:44:28.820Z,17.00
2023-01-25T14:47:33.295Z,19.10
2023-01-25T14:50:35.923Z,18.00
2023-01-25T14:53:27.237Z,18.70
2023-01-25T14:56:27.984Z,19.40
2023-01-25T14:59:31.949Z,16.70
2023-01-25T15:02:29.288Z,18.30
2023-01-25T15:05:21.347Z,16.20
2023-01-25T15:08:29.287Z,20.60
2023-01-25T15:11:48.868Z,19.70
2023-01-25T15:14:49.946Z,17.80
2023-01-25T15:17:45.478Z,20.10
2023-01-25T15:20:41.228Z,19.30
2023-01-25T15:23:32.226Z,19.00
2023-01-25T15:26:23.905Z,19.50
2023-01-25T15:29:16.919Z,19.40
2023-01-25T15:32:09.729Z,17.70
2023-01-25T15:35:01.382Z,19.20
2023-01-25T15:37:53.055Z,17.50
2023-01-25T15:40:44.721Z,18.40
2023-01-25T15:43:36.442Z,17.80
2023-01-25T15:46:29.369Z,15.10
2023-01-25T15:49:22.131Z,19.00
2023-01-25T15:52:13.200Z,19.40
2023-01-25T15:55:04.377Z,17.90
2023-01-25T15:57:57.277Z,18.50
2023-01-25T16:00:49.311Z,16.70
2023-01-25T16:03:41.578Z,19.60
2023-01-25T16:06:36.837Z,16.60
2023-01-25T16:09:29.908Z,16.40
2023-01-25T16:12:22.332Z,18.00
2023-01-25T16:15:13.978Z,18.60
2023-01-25T16:18:05.070Z,19.10
2023-01-25T16:20:56.014Z,21.60
2023-01-25T16:23:47.145Z,18.00
2023-01-25T16:26:38.605Z,20.00
2023-01-25T16:29:29.613Z,18.50
2023-01-25T16:32:21.578Z,20.50
2023-01-25T16:35:12.991Z,15.70
2023-01-25T16:38:04.019Z,17.10
2023-01-25T16:40:55.696Z,19.30
2023-01-25T16:43:48.293Z,17.60
2023-01-25T16:46:39.353Z,19.60
2023-01-25T16:49:30.758Z,17.70
2023-01-25T16:52:21.967Z,19.20
2023-01-25T16:55:13.876Z,17.40
2023-01-25T16:58:04.881Z,17.50
2023-01-25T17:00:55.943Z,16.00
2023-01-25T17:03:47.907Z,22.10
2023-01-25T17:06:40.283Z,19.10
2023-01-25T17:09:31.412Z,18.90
2023-01-25T17:12:22.434Z,22.00
2023-01-25T17:15:13.728Z,20.50
2023-01-25T17:18:04.842Z,17.70
2023-01-25T17:21:01.029Z,18.80
2023-01-25T17:26:43.805Z,16.80
2023-01-25T17:29:34.988Z,16.90
2023-01-25T17:32:26.116Z,18.90
2023-01-25T17:35:17.204Z,22.30
2023-01-25T17:38:08.933Z,19.00
2023-01-25T17:40:59.964Z,19.60
2023-01-25T17:43:53.907Z,18.50
2023-01-25T17:46:45.630Z,20.30
2023-01-25T17:49:37.313Z,18.90
2023-01-25T17:52:29.835Z,18.40
2023-01-25T17:55:21.851Z,20.80
2023-01-25T17:58:13.513Z,22.50
2023-01-25T18:01:13.874Z,18.50
2023-01-25T18:04:08.840Z,20.80
2023-01-25T18:06:59.851Z,19.20
2023-01-25T18:09:50.847Z,21.70
2023-01-25T18:12:43.730Z,21.60
2023-01-25T18:15:37.119Z,18.20
2023-01-25T18:18:28.875Z,21.50
2023-01-25T18:21:24.291Z,21.10
2023-01-25T18:24:27.773Z,24.60
2023-01-25T18:27:22.033Z,23.40
2023-01-25T18:30:29.091Z,21.90
2023-01-25T18:33:21.787Z,20.80
2023-01-25T18:36:16.003Z,20.50
2023-01-25T18:39:08.546Z,20.70
2023-01-25T18:41:59.755Z,20.80
2023-01-25T18:44:51.062Z,22.50
2023-01-25T18:47:42.689Z,22.50
2023-01-25T18:50:34.492Z,23.40
2023-01-25T18:53:27.249Z,20.90
2023-01-25T18:56:19.150Z,22.90
2023-01-25T18:59:10.111Z,21.00
2023-01-25T19:02:01.790Z,24.00
2023-01-25T19:04:53.914Z,20.60
2023-01-25T19:07:45.698Z,22.30
2023-01-25T19:10:37.530Z,20.40
2023-01-25T19:13:33.707Z,22.70
2023-01-25T19:16:25.284Z,21.40
2023-01-25T19:19:16.405Z,21.30
2023-01-25T19:22:08.175Z,23.50
2023-01-25T19:24:59.881Z,22.30
2023-01-25T19:27:51.475Z,24.10
2023-01-25T19:30:43.202Z,23.90
2023-01-25T19:33:35.211Z,22.80
2023-01-25T19:36:26.754Z,24.40
2023-01-25T19:39:19.009Z,25.50
2023-01-25T19:42:11.031Z,22.20
2023-01-25T19:45:02.964Z,24.30
2023-01-25T19:47:54.878Z,21.60
2023-01-25T19:50:46.700Z,23.50
2023-01-25T19:53:38.393Z,23.90
2023-01-25T19:56:30.741Z,22.40
2023-01-25T19:59:24.875Z,21.40
2023-01-25T20:02:16.080Z,24.60
2023-01-25T20:05:09.639Z,25.00
2023-01-25T20:08:01.061Z,24.30
2023-01-25T20:10:52.726Z,25.00
2023-01-25T20:13:44.536Z,25.60
2023-01-25T20:16:37.009Z,25.00
2023-01-25T20:19:29.025Z,24.90
2023-01-25T20:22:20.101Z,24.10
2023-01-25T20:25:12.646Z,25.90
2023-01-25T20:28:04.456Z,21.10
2023-01-25T20:30:57.869Z,24.20
2023-01-25T20:33:49.540Z,28.90
2023-01-25T20:36:41.378Z,24.60
2023-01-25T20:39:33.000Z,25.50
2023-01-25T20:42:24.610Z,23.90
2023-01-25T20:45:17.277Z,24.80
2023-01-25T20:48:09.574Z,23.00
2023-01-25T20:51:04.540Z,28.20
2023-01-25T20:53:55.618Z,25.50
2023-01-25T20:56:50.291Z,26.20
2023-01-25T20:59:41.936Z,24.20
2023-01-25T21:02:35.362Z,25.30
2023-01-25T21:05:27.232Z,27.10
2023-01-25T21:08:18.980Z,26.60
2023-01-25T21:11:11.523Z,25.60
2023-01-25T21:14:03.257Z,26.30
2023-01-25T21:16:54.968Z,27.30
2023-01-25T21:19:46.621Z,27.10
2023-01-25T21:22:38.385Z,25.90
2023-01-25T21:25:30.013Z,23.10
2023-01-25T21:28:21.721Z,27.70
2023-01-25T21:31:14.336Z,26.90
2023-01-25T21:34:06.188Z,25.80
2023-01-25T21:36:57.221Z,24.30
2023-01-25T21:39:48.328Z,27.70
2023-01-25T21:42:40.114Z,26.80
2023-01-25T21:45:49.549Z,25.20
2023-01-25T21:48:59.022Z,27.80
2023-01-25T21:51:51.291Z,30.40
2023-01-25T21:54:42.443Z,27.50
2023-01-25T21:57:36.565Z,29.30
2023-01-25T22:00:28.199Z,28.20
2023-01-25T22:03:19.819Z,25.20
2023-01-25T22:06:11.550Z,25.70
2023-01-25T22:09:03.162Z,26.80
2023-01-25T22:11:55.444Z,26.20
2023-01-25T22:14:47.076Z,25.00
2023-01-25T22:17:38.693Z,24.60
2023-01-25T22:20:30.289Z,27.10
2023-01-25T22:23:21.862Z,25.20
2023-01-25T22:26:14.193Z,26.40
2023-01-25T22:29:05.181Z,31.40
2023-01-25T22:31:57.243Z,27.10
2023-01-25T22:34:49.322Z,26.00
2023-01-25T22:37:40.947Z,26.90
2023-01-25T22:40:32.481Z,26.40
2023-01-25T22:43:25.217Z,24.90
2023-01-25T22:46:18.102Z,32.60
2023-01-25T22:49:09.129Z,25.80
2023-01-25T22:52:00.735Z,30.30
2023-01-25T22:54:52.809Z,30.50
2023-01-25T22:57:44.397Z,27.30
2023-01-25T23:00:36.430Z,29.40
2023-01-25T23:03:28.282Z,30.50
2023-01-25T23:06:21.550Z,33.20
2023-01-25T23:09:12.583Z,33.40
2023-01-25T23:12:05.633Z,30.30
2023-01-25T23:14:59.180Z,28.70
2023-01-25T23:18:07.607Z,28.60
2023-01-25T23:20:59.216Z,32.00
2023-01-25T23:23:50.963Z,27.80
2023-01-25T23:26:46.694Z,30.20
2023-01-25T23:29:38.213Z,27.60
2023-01-25T23:32:29.797Z,28.00
2023-01-25T23:35:21.574Z,24.90
2023-01-25T23:38:15.155Z,29.40
2023-01-25T23:41:06.937Z,30.00
2023-01-25T23:43:58.105Z,31.90
2023-01-25T23:46:50.218Z,28.70
2023-01-25T23:49:41.726Z,31.40
2023-01-25T23:52:32.785Z,32.60
2023-01-25T23:55:24.414Z,33.00
2023-01-25T23:58:16.203Z,27.90
